sensor_id;sensor_type;location;lat;lon;timestamp;temperature;humidity
46117;DHT22;32591;48.102;11.772;2022-08-14T00:02:06;17.10;77.00
46117;DHT22;32591;48.102;11.772;2022-08-14T00:04:40;17.10;77.00
46117;DHT22;32591;48.102;11.772;2022-08-14T00:07:08;17.10;77.10
46117;DHT22;32591;48.102;11.772;2022-08-14T00:09:36;17.00;77.50
46117;DHT22;32591;48.102;11.772;2022-08-14T00:12:03;17.00;77.50
46117;DHT22;32591;48.102;11.772;2022-08-14T00:14:31;17.00;77.70
46117;DHT22;32591;48.102;11.772;2022-08-14T00:17:00;16.90;77.90
46117;DHT22;32591;48.102;11.772;2022-08-14T00:19:27;16.90;78.20
46117;DHT22;32591;48.102;11.772;2022-08-14T00:21:54;16.80;78.40
46117;DHT22;32591;48.102;11.772;2022-08-14T00:24:22;16.80;79.20
46117;DHT22;32591;48.102;11.772;2022-08-14T00:26:49;16.70;79.00
46117;DHT22;32591;48.102;11.772;2022-08-14T00:29:16;16.70;79.20
46117;DHT22;32591;48.102;11.772;2022-08-14T00:31:43;16.70;79.30
46117;DHT22;32591;48.102;11.772;2022-08-14T00:34:11;16.70;79.50
46117;DHT22;32591;48.102;11.772;2022-08-14T00:36:38;16.60;79.30
46117;DHT22;32591;48.102;11.772;2022-08-14T00:39:05;16.70;79.50
46117;DHT22;32591;48.102;11.772;2022-08-14T00:41:32;16.60;79.50
46117;DHT22;32591;48.102;11.772;2022-08-14T00:43:59;16.60;79.40
46117;DHT22;32591;48.102;11.772;2022-08-14T00:46:26;16.60;79.30
46117;DHT22;32591;48.102;11.772;2022-08-14T00:48:53;16.60;79.50
46117;DHT22;32591;48.102;11.772;2022-08-14T00:51:21;16.60;80.00
46117;DHT22;32591;48.102;11.772;2022-08-14T00:53:48;16.50;80.20
46117;DHT22;32591;48.102;11.772;2022-08-14T00:56:16;16.50;80.10
46117;DHT22;32591;48.102;11.772;2022-08-14T00:58:44;16.50;80.20
46117;DHT22;32591;48.102;11.772;2022-08-14T01:01:11;16.40;80.80
46117;DHT22;32591;48.102;11.772;2022-08-14T01:03:39;16.30;81.10
46117;DHT22;32591;48.102;11.772;2022-08-14T01:06:07;16.30;81.30
46117;DHT22;32591;48.102;11.772;2022-08-14T01:08:37;16.30;81.50
46117;DHT22;32591;48.102;11.772;2022-08-14T01:11:07;16.30;82.30
46117;DHT22;32591;48.102;11.772;2022-08-14T01:13:44;16.20;82.00
46117;DHT22;32591;48.102;11.772;2022-08-14T01:16:14;16.10;82.20
46117;DHT22;32591;48.102;11.772;2022-08-14T01:18:42;16.10;82.50
46117;DHT22;32591;48.102;11.772;2022-08-14T01:21:31;16.10;82.70
46117;DHT22;32591;48.102;11.772;2022-08-14T01:23:59;16.20;83.00
46117;DHT22;32591;48.102;11.772;2022-08-14T01:26:26;16.10;83.00
46117;DHT22;32591;48.102;11.772;2022-08-14T01:28:55;16.10;83.10
46117;DHT22;32591;48.102;11.772;2022-08-14T01:31:27;16.10;83.40
46117;DHT22;32591;48.102;11.772;2022-08-14T01:33:58;16.10;83.40
46117;DHT22;32591;48.102;11.772;2022-08-14T01:36:27;16.00;83.60
46117;DHT22;32591;48.102;11.772;2022-08-14T01:39:05;15.90;84.00
46117;DHT22;32591;48.102;11.772;2022-08-14T01:41:35;15.90;84.30
46117;DHT22;32591;48.102;11.772;2022-08-14T01:44:05;15.90;84.40
46117;DHT22;32591;48.102;11.772;2022-08-14T01:46:37;15.90;84.80
46117;DHT22;32591;48.102;11.772;2022-08-14T01:49:07;15.80;84.80
46117;DHT22;32591;48.102;11.772;2022-08-14T01:51:37;15.80;85.00
46117;DHT22;32591;48.102;11.772;2022-08-14T01:54:07;15.80;85.00
46117;DHT22;32591;48.102;11.772;2022-08-14T01:56:37;15.70;85.00
46117;DHT22;32591;48.102;11.772;2022-08-14T01:59:06;15.70;85.00
46117;DHT22;32591;48.102;11.772;2022-08-14T02:01:34;15.70;85.20
46117;DHT22;32591;48.102;11.772;2022-08-14T02:04:03;15.70;85.40
46117;DHT22;32591;48.102;11.772;2022-08-14T02:06:30;15.60;85.60
46117;DHT22;32591;48.102;11.772;2022-08-14T02:08:57;15.60;86.00
46117;DHT22;32591;48.102;11.772;2022-08-14T02:11:28;15.60;85.20
46117;DHT22;32591;48.102;11.772;2022-08-14T02:13:59;15.50;85.80
46117;DHT22;32591;48.102;11.772;2022-08-14T02:16:32;15.50;85.70
46117;DHT22;32591;48.102;11.772;2022-08-14T02:19:06;15.50;85.90
46117;DHT22;32591;48.102;11.772;2022-08-14T02:21:36;15.50;86.20
46117;DHT22;32591;48.102;11.772;2022-08-14T02:24:05;15.40;86.50
46117;DHT22;32591;48.102;11.772;2022-08-14T02:26:41;15.40;86.70
46117;DHT22;32591;48.102;11.772;2022-08-14T02:29:14;15.40;86.50
46117;DHT22;32591;48.102;11.772;2022-08-14T02:31:46;15.40;87.00
46117;DHT22;32591;48.102;11.772;2022-08-14T02:34:18;15.40;86.90
46117;DHT22;32591;48.102;11.772;2022-08-14T02:36:47;15.30;87.30
46117;DHT22;32591;48.102;11.772;2022-08-14T02:39:16;15.30;87.20
46117;DHT22;32591;48.102;11.772;2022-08-14T02:41:45;15.20;87.20
46117;DHT22;32591;48.102;11.772;2022-08-14T02:44:13;15.10;87.80
46117;DHT22;32591;48.102;11.772;2022-08-14T02:46:46;15.10;88.50
46117;DHT22;32591;48.102;11.772;2022-08-14T02:49:13;15.00;88.40
46117;DHT22;32591;48.102;11.772;2022-08-14T02:51:42;15.10;88.50
46117;DHT22;32591;48.102;11.772;2022-08-14T02:54:13;15.10;88.90
46117;DHT22;32591;48.102;11.772;2022-08-14T02:56:40;15.10;88.80
46117;DHT22;32591;48.102;11.772;2022-08-14T02:59:09;15.00;89.20
46117;DHT22;32591;48.102;11.772;2022-08-14T03:01:38;15.00;88.80
46117;DHT22;32591;48.102;11.772;2022-08-14T03:04:16;15.00;89.40
46117;DHT22;32591;48.102;11.772;2022-08-14T03:06:43;15.00;89.30
46117;DHT22;32591;48.102;11.772;2022-08-14T03:09:13;15.00;89.30
46117;DHT22;32591;48.102;11.772;2022-08-14T03:11:40;15.00;89.20
46117;DHT22;32591;48.102;11.772;2022-08-14T03:14:10;15.00;90.00
46117;DHT22;32591;48.102;11.772;2022-08-14T03:16:39;15.00;89.60
46117;DHT22;32591;48.102;11.772;2022-08-14T03:19:07;14.90;89.90
46117;DHT22;32591;48.102;11.772;2022-08-14T03:21:36;14.90;89.90
46117;DHT22;32591;48.102;11.772;2022-08-14T03:24:05;14.80;90.00
46117;DHT22;32591;48.102;11.772;2022-08-14T03:26:37;14.80;90.10
46117;DHT22;32591;48.102;11.772;2022-08-14T03:29:06;14.80;90.00
46117;DHT22;32591;48.102;11.772;2022-08-14T03:31:34;14.70;90.20
46117;DHT22;32591;48.102;11.772;2022-08-14T03:34:02;14.70;90.40
46117;DHT22;32591;48.102;11.772;2022-08-14T03:36:30;14.70;90.50
46117;DHT22;32591;48.102;11.772;2022-08-14T03:38:58;14.70;90.50
46117;DHT22;32591;48.102;11.772;2022-08-14T03:41:26;14.70;90.30
46117;DHT22;32591;48.102;11.772;2022-08-14T03:43:55;14.70;90.40
46117;DHT22;32591;48.102;11.772;2022-08-14T03:46:25;14.70;90.50
46117;DHT22;32591;48.102;11.772;2022-08-14T03:48:54;14.70;90.40
46117;DHT22;32591;48.102;11.772;2022-08-14T03:51:22;14.70;90.40
46117;DHT22;32591;48.102;11.772;2022-08-14T03:53:53;14.70;90.50
46117;DHT22;32591;48.102;11.772;2022-08-14T03:56:23;14.60;90.50
46117;DHT22;32591;48.102;11.772;2022-08-14T03:58:54;14.60;90.70
46117;DHT22;32591;48.102;11.772;2022-08-14T04:01:22;14.60;90.70
46117;DHT22;32591;48.102;11.772;2022-08-14T04:03:54;14.50;90.80
46117;DHT22;32591;48.102;11.772;2022-08-14T04:06:23;14.50;90.90
46117;DHT22;32591;48.102;11.772;2022-08-14T04:08:50;14.50;90.90
46117;DHT22;32591;48.102;11.772;2022-08-14T04:11:18;14.40;90.90
46117;DHT22;32591;48.102;11.772;2022-08-14T04:13:55;14.50;90.90
46117;DHT22;32591;48.102;11.772;2022-08-14T04:16:22;14.50;91.00
46117;DHT22;32591;48.102;11.772;2022-08-14T04:18:51;14.40;90.90
46117;DHT22;32591;48.102;11.772;2022-08-14T04:21:23;14.40;90.90
46117;DHT22;32591;48.102;11.772;2022-08-14T04:23:54;14.40;91.10
46117;DHT22;32591;48.102;11.772;2022-08-14T04:26:24;14.40;91.20
46117;DHT22;32591;48.102;11.772;2022-08-14T04:28:53;14.40;90.90
46117;DHT22;32591;48.102;11.772;2022-08-14T04:31:21;14.40;91.30
46117;DHT22;32591;48.102;11.772;2022-08-14T04:33:49;14.40;91.40
46117;DHT22;32591;48.102;11.772;2022-08-14T04:36:18;14.40;91.30
46117;DHT22;32591;48.102;11.772;2022-08-14T04:38:45;14.40;91.30
46117;DHT22;32591;48.102;11.772;2022-08-14T04:41:30;14.40;91.20
46117;DHT22;32591;48.102;11.772;2022-08-14T04:44:15;14.40;91.10
46117;DHT22;32591;48.102;11.772;2022-08-14T04:46:42;14.40;91.10
46117;DHT22;32591;48.102;11.772;2022-08-14T04:49:31;14.50;91.00
46117;DHT22;32591;48.102;11.772;2022-08-14T04:51:58;14.50;91.00
46117;DHT22;32591;48.102;11.772;2022-08-14T04:54:28;14.50;91.00
46117;DHT22;32591;48.102;11.772;2022-08-14T04:56:56;14.50;91.10
46117;DHT22;32591;48.102;11.772;2022-08-14T04:59:23;14.50;90.90
46117;DHT22;32591;48.102;11.772;2022-08-14T05:01:51;14.60;91.00
46117;DHT22;32591;48.102;11.772;2022-08-14T05:04:19;14.60;90.80
46117;DHT22;32591;48.102;11.772;2022-08-14T05:06:47;14.60;90.80
46117;DHT22;32591;48.102;11.772;2022-08-14T05:09:17;14.70;90.90
46117;DHT22;32591;48.102;11.772;2022-08-14T05:11:44;14.70;90.80
46117;DHT22;32591;48.102;11.772;2022-08-14T05:14:11;14.80;91.00
46117;DHT22;32591;48.102;11.772;2022-08-14T05:16:38;14.80;90.80
46117;DHT22;32591;48.102;11.772;2022-08-14T05:19:05;14.90;91.00
46117;DHT22;32591;48.102;11.772;2022-08-14T05:21:38;15.00;90.80
46117;DHT22;32591;48.102;11.772;2022-08-14T05:24:17;15.10;90.60
46117;DHT22;32591;48.102;11.772;2022-08-14T05:26:43;15.20;90.70
46117;DHT22;32591;48.102;11.772;2022-08-14T05:29:11;15.20;90.50
46117;DHT22;32591;48.102;11.772;2022-08-14T05:31:38;15.30;90.40
46117;DHT22;32591;48.102;11.772;2022-08-14T05:34:05;15.50;90.10
46117;DHT22;32591;48.102;11.772;2022-08-14T05:36:34;15.60;90.10
46117;DHT22;32591;48.102;11.772;2022-08-14T05:39:01;15.70;90.20
46117;DHT22;32591;48.102;11.772;2022-08-14T05:41:30;15.80;89.70
46117;DHT22;32591;48.102;11.772;2022-08-14T05:43:57;15.90;89.20
46117;DHT22;32591;48.102;11.772;2022-08-14T05:46:24;16.00;89.10
46117;DHT22;32591;48.102;11.772;2022-08-14T05:48:53;16.10;88.20
46117;DHT22;32591;48.102;11.772;2022-08-14T05:51:22;16.20;87.70
46117;DHT22;32591;48.102;11.772;2022-08-14T05:53:50;16.30;88.00
46117;DHT22;32591;48.102;11.772;2022-08-14T05:56:17;16.40;87.50
46117;DHT22;32591;48.102;11.772;2022-08-14T05:58:45;16.40;86.70
46117;DHT22;32591;48.102;11.772;2022-08-14T06:01:12;16.50;86.90
46117;DHT22;32591;48.102;11.772;2022-08-14T06:03:39;16.70;86.80
46117;DHT22;32591;48.102;11.772;2022-08-14T06:06:07;16.90;86.40
46117;DHT22;32591;48.102;11.772;2022-08-14T06:08:34;17.00;86.00
46117;DHT22;32591;48.102;11.772;2022-08-14T06:11:04;17.10;85.90
46117;DHT22;32591;48.102;11.772;2022-08-14T06:13:33;17.10;85.70
46117;DHT22;32591;48.102;11.772;2022-08-14T06:16:04;17.30;84.80
46117;DHT22;32591;48.102;11.772;2022-08-14T06:18:31;17.40;83.60
46117;DHT22;32591;48.102;11.772;2022-08-14T06:21:00;17.50;83.60
46117;DHT22;32591;48.102;11.772;2022-08-14T06:23:27;17.60;83.00
46117;DHT22;32591;48.102;11.772;2022-08-14T06:25:54;17.70;82.40
46117;DHT22;32591;48.102;11.772;2022-08-14T06:28:22;17.80;81.90
46117;DHT22;32591;48.102;11.772;2022-08-14T06:30:50;18.00;81.90
46117;DHT22;32591;48.102;11.772;2022-08-14T06:33:28;18.10;81.80
46117;DHT22;32591;48.102;11.772;2022-08-14T06:35:55;18.20;80.40
46117;DHT22;32591;48.102;11.772;2022-08-14T06:38:22;18.30;80.10
46117;DHT22;32591;48.102;11.772;2022-08-14T06:40:50;18.50;79.80
46117;DHT22;32591;48.102;11.772;2022-08-14T06:43:18;18.50;79.90
46117;DHT22;32591;48.102;11.772;2022-08-14T06:45:46;18.60;79.00
46117;DHT22;32591;48.102;11.772;2022-08-14T06:48:15;18.80;78.20
46117;DHT22;32591;48.102;11.772;2022-08-14T06:50:45;18.90;77.40
46117;DHT22;32591;48.102;11.772;2022-08-14T06:53:12;19.00;77.40
46117;DHT22;32591;48.102;11.772;2022-08-14T06:55:41;19.20;76.70
46117;DHT22;32591;48.102;11.772;2022-08-14T06:58:10;19.30;76.20
46117;DHT22;32591;48.102;11.772;2022-08-14T07:00:38;19.40;75.70
46117;DHT22;32591;48.102;11.772;2022-08-14T07:03:05;19.60;75.50
46117;DHT22;32591;48.102;11.772;2022-08-14T07:05:51;19.70;74.80
46117;DHT22;32591;48.102;11.772;2022-08-14T07:08:19;19.90;74.20
46117;DHT22;32591;48.102;11.772;2022-08-14T07:10:49;19.90;72.60
46117;DHT22;32591;48.102;11.772;2022-08-14T07:13:19;20.20;72.50
46117;DHT22;32591;48.102;11.772;2022-08-14T07:15:47;20.20;72.90
46117;DHT22;32591;48.102;11.772;2022-08-14T07:18:18;20.30;72.60
46117;DHT22;32591;48.102;11.772;2022-08-14T07:20:46;20.40;71.80
46117;DHT22;32591;48.102;11.772;2022-08-14T07:23:15;20.50;71.40
46117;DHT22;32591;48.102;11.772;2022-08-14T07:25:43;20.70;71.10
46117;DHT22;32591;48.102;11.772;2022-08-14T07:28:12;20.90;69.90
46117;DHT22;32591;48.102;11.772;2022-08-14T07:30:40;21.40;69.10
46117;DHT22;32591;48.102;11.772;2022-08-14T07:33:09;21.50;67.60
46117;DHT22;32591;48.102;11.772;2022-08-14T07:35:36;21.50;67.80
46117;DHT22;32591;48.102;11.772;2022-08-14T07:38:06;21.50;67.50
46117;DHT22;32591;48.102;11.772;2022-08-14T07:40:35;21.50;67.90
46117;DHT22;32591;48.102;11.772;2022-08-14T07:43:12;21.60;67.70
46117;DHT22;32591;48.102;11.772;2022-08-14T07:45:39;21.70;67.90
46117;DHT22;32591;48.102;11.772;2022-08-14T07:48:11;21.80;67.00
46117;DHT22;32591;48.102;11.772;2022-08-14T07:50:38;22.00;66.90
46117;DHT22;32591;48.102;11.772;2022-08-14T07:53:05;22.10;65.90
46117;DHT22;32591;48.102;11.772;2022-08-14T07:55:32;22.20;64.80
46117;DHT22;32591;48.102;11.772;2022-08-14T07:58:01;22.40;64.60
46117;DHT22;32591;48.102;11.772;2022-08-14T08:00:28;22.40;63.70
46117;DHT22;32591;48.102;11.772;2022-08-14T08:02:55;22.50;63.30
46117;DHT22;32591;48.102;11.772;2022-08-14T08:05:25;22.60;61.00
46117;DHT22;32591;48.102;11.772;2022-08-14T08:07:53;22.70;60.90
46117;DHT22;32591;48.102;11.772;2022-08-14T08:10:22;22.80;61.50
46117;DHT22;32591;48.102;11.772;2022-08-14T08:12:59;22.90;61.30
46117;DHT22;32591;48.102;11.772;2022-08-14T08:15:29;23.00;60.20
46117;DHT22;32591;48.102;11.772;2022-08-14T08:17:58;23.20;60.20
46117;DHT22;32591;48.102;11.772;2022-08-14T08:20:26;23.20;60.40
46117;DHT22;32591;48.102;11.772;2022-08-14T08:22:54;23.30;60.00
46117;DHT22;32591;48.102;11.772;2022-08-14T08:25:23;23.50;59.80
46117;DHT22;32591;48.102;11.772;2022-08-14T08:27:59;23.50;59.70
46117;DHT22;32591;48.102;11.772;2022-08-14T08:30:29;23.60;59.40
46117;DHT22;32591;48.102;11.772;2022-08-14T08:32:59;23.60;58.80
46117;DHT22;32591;48.102;11.772;2022-08-14T08:35:29;23.80;57.70
46117;DHT22;32591;48.102;11.772;2022-08-14T08:38:01;23.90;56.90
46117;DHT22;32591;48.102;11.772;2022-08-14T08:40:31;24.10;56.90
46117;DHT22;32591;48.102;11.772;2022-08-14T08:43:03;24.20;56.20
46117;DHT22;32591;48.102;11.772;2022-08-14T08:45:32;24.40;56.50
46117;DHT22;32591;48.102;11.772;2022-08-14T08:48:00;24.40;56.10
46117;DHT22;32591;48.102;11.772;2022-08-14T08:50:29;24.40;55.70
46117;DHT22;32591;48.102;11.772;2022-08-14T08:53:09;24.50;55.70
46117;DHT22;32591;48.102;11.772;2022-08-14T08:55:38;24.60;56.30
46117;DHT22;32591;48.102;11.772;2022-08-14T08:58:08;24.70;56.70
46117;DHT22;32591;48.102;11.772;2022-08-14T09:00:39;24.80;56.50
46117;DHT22;32591;48.102;11.772;2022-08-14T09:03:07;24.80;56.40
46117;DHT22;32591;48.102;11.772;2022-08-14T09:05:37;24.90;57.30
46117;DHT22;32591;48.102;11.772;2022-08-14T09:08:17;25.00;56.80
46117;DHT22;32591;48.102;11.772;2022-08-14T09:10:46;25.10;55.80
46117;DHT22;32591;48.102;11.772;2022-08-14T09:13:15;25.20;55.30
46117;DHT22;32591;48.102;11.772;2022-08-14T09:15:45;25.30;55.00
46117;DHT22;32591;48.102;11.772;2022-08-14T09:18:14;25.30;54.80
46117;DHT22;32591;48.102;11.772;2022-08-14T09:20:44;25.50;55.50
46117;DHT22;32591;48.102;11.772;2022-08-14T09:23:13;25.50;56.00
46117;DHT22;32591;48.102;11.772;2022-08-14T09:25:41;25.60;53.50
46117;DHT22;32591;48.102;11.772;2022-08-14T09:28:13;25.70;54.60
46117;DHT22;32591;48.102;11.772;2022-08-14T09:30:45;25.70;54.00
46117;DHT22;32591;48.102;11.772;2022-08-14T09:33:37;25.80;53.70
46117;DHT22;32591;48.102;11.772;2022-08-14T09:40:02;25.90;54.10
46117;DHT22;32591;48.102;11.772;2022-08-14T09:42:49;26.10;53.60
46117;DHT22;32591;48.102;11.772;2022-08-14T09:45:30;26.10;53.00
46117;DHT22;32591;48.102;11.772;2022-08-14T09:47:58;26.20;54.10
46117;DHT22;32591;48.102;11.772;2022-08-14T09:50:28;26.30;53.20
46117;DHT22;32591;48.102;11.772;2022-08-14T09:52:59;26.40;53.20
46117;DHT22;32591;48.102;11.772;2022-08-14T09:55:29;26.50;52.60
46117;DHT22;32591;48.102;11.772;2022-08-14T09:58:10;26.40;51.70
46117;DHT22;32591;48.102;11.772;2022-08-14T10:00:44;26.40;53.40
46117;DHT22;32591;48.102;11.772;2022-08-14T10:03:26;26.50;51.70
46117;DHT22;32591;48.102;11.772;2022-08-14T10:06:05;26.60;51.00
46117;DHT22;32591;48.102;11.772;2022-08-14T10:08:44;26.80;52.20
46117;DHT22;32591;48.102;11.772;2022-08-14T10:11:19;27.00;51.50
46117;DHT22;32591;48.102;11.772;2022-08-14T10:13:48;27.20;52.20
46117;DHT22;32591;48.102;11.772;2022-08-14T10:16:20;27.40;49.40
46117;DHT22;32591;48.102;11.772;2022-08-14T10:18:59;27.50;49.80
46117;DHT22;32591;48.102;11.772;2022-08-14T10:21:27;27.50;49.30
46117;DHT22;32591;48.102;11.772;2022-08-14T10:23:54;27.50;49.10
46117;DHT22;32591;48.102;11.772;2022-08-14T10:26:21;27.50;49.00
46117;DHT22;32591;48.102;11.772;2022-08-14T10:28:51;27.40;46.80
46117;DHT22;32591;48.102;11.772;2022-08-14T10:31:23;27.50;47.20
46117;DHT22;32591;48.102;11.772;2022-08-14T10:34:00;27.60;46.60
46117;DHT22;32591;48.102;11.772;2022-08-14T10:36:31;27.70;46.90
46117;DHT22;32591;48.102;11.772;2022-08-14T10:39:03;27.80;45.30
46117;DHT22;32591;48.102;11.772;2022-08-14T10:41:37;27.90;46.50
46117;DHT22;32591;48.102;11.772;2022-08-14T10:44:10;27.90;48.40
46117;DHT22;32591;48.102;11.772;2022-08-14T10:46:43;28.00;46.20
46117;DHT22;32591;48.102;11.772;2022-08-14T10:49:17;27.90;45.40
46117;DHT22;32591;48.102;11.772;2022-08-14T10:51:56;28.00;45.60
46117;DHT22;32591;48.102;11.772;2022-08-14T10:54:32;28.20;44.30
46117;DHT22;32591;48.102;11.772;2022-08-14T10:57:11;28.30;45.60
46117;DHT22;32591;48.102;11.772;2022-08-14T10:59:45;28.40;44.70
46117;DHT22;32591;48.102;11.772;2022-08-14T11:02:21;28.30;44.90
46117;DHT22;32591;48.102;11.772;2022-08-14T11:05:03;28.20;46.00
46117;DHT22;32591;48.102;11.772;2022-08-14T11:07:33;28.40;46.10
46117;DHT22;32591;48.102;11.772;2022-08-14T11:10:03;28.50;45.70
46117;DHT22;32591;48.102;11.772;2022-08-14T11:12:44;28.60;45.20
46117;DHT22;32591;48.102;11.772;2022-08-14T11:15:25;28.60;44.20
46117;DHT22;32591;48.102;11.772;2022-08-14T11:17:58;28.70;42.90
46117;DHT22;32591;48.102;11.772;2022-08-14T11:20:28;28.70;44.00
46117;DHT22;32591;48.102;11.772;2022-08-14T11:22:59;28.70;42.40
46117;DHT22;32591;48.102;11.772;2022-08-14T11:25:28;28.90;45.50
46117;DHT22;32591;48.102;11.772;2022-08-14T11:27:57;29.00;44.00
46117;DHT22;32591;48.102;11.772;2022-08-14T11:30:27;29.10;44.00
46117;DHT22;32591;48.102;11.772;2022-08-14T11:32:57;29.00;41.80
46117;DHT22;32591;48.102;11.772;2022-08-14T11:35:25;29.00;43.80
46117;DHT22;32591;48.102;11.772;2022-08-14T11:37:54;28.90;43.40
46117;DHT22;32591;48.102;11.772;2022-08-14T11:40:26;29.00;44.10
46117;DHT22;32591;48.102;11.772;2022-08-14T11:42:55;29.10;41.30
46117;DHT22;32591;48.102;11.772;2022-08-14T11:45:26;29.30;41.30
46117;DHT22;32591;48.102;11.772;2022-08-14T11:47:55;29.40;42.00
46117;DHT22;32591;48.102;11.772;2022-08-14T11:50:24;29.40;42.00
46117;DHT22;32591;48.102;11.772;2022-08-14T11:52:55;29.40;41.00
46117;DHT22;32591;48.102;11.772;2022-08-14T11:55:24;29.50;42.10
46117;DHT22;32591;48.102;11.772;2022-08-14T11:57:59;29.60;41.10
46117;DHT22;32591;48.102;11.772;2022-08-14T12:00:30;29.70;40.80
46117;DHT22;32591;48.102;11.772;2022-08-14T12:03:00;29.70;42.40
46117;DHT22;32591;48.102;11.772;2022-08-14T12:05:32;29.90;40.00
46117;DHT22;32591;48.102;11.772;2022-08-14T12:08:02;29.90;37.30
46117;DHT22;32591;48.102;11.772;2022-08-14T12:10:32;29.90;39.40
46117;DHT22;32591;48.102;11.772;2022-08-14T12:13:09;30.00;39.80
46117;DHT22;32591;48.102;11.772;2022-08-14T12:15:39;30.10;38.10
46117;DHT22;32591;48.102;11.772;2022-08-14T12:18:06;30.10;35.40
46117;DHT22;32591;48.102;11.772;2022-08-14T12:20:37;30.00;35.40
46117;DHT22;32591;48.102;11.772;2022-08-14T12:23:21;29.80;34.90
46117;DHT22;32591;48.102;11.772;2022-08-14T12:26:01;29.60;34.80
46117;DHT22;32591;48.102;11.772;2022-08-14T12:28:28;29.80;37.80
46117;DHT22;32591;48.102;11.772;2022-08-14T12:30:55;30.10;37.60
46117;DHT22;32591;48.102;11.772;2022-08-14T12:33:24;30.30;37.20
46117;DHT22;32591;48.102;11.772;2022-08-14T12:35:55;30.40;37.00
46117;DHT22;32591;48.102;11.772;2022-08-14T12:38:35;30.50;35.40
46117;DHT22;32591;48.102;11.772;2022-08-14T12:41:08;30.40;36.30
46117;DHT22;32591;48.102;11.772;2022-08-14T12:43:44;30.40;34.90
46117;DHT22;32591;48.102;11.772;2022-08-14T12:46:20;30.50;34.50
46117;DHT22;32591;48.102;11.772;2022-08-14T12:48:49;30.40;34.80
46117;DHT22;32591;48.102;11.772;2022-08-14T12:51:19;30.40;36.60
46117;DHT22;32591;48.102;11.772;2022-08-14T12:53:48;30.50;37.20
46117;DHT22;32591;48.102;11.772;2022-08-14T12:56:16;30.60;35.90
46117;DHT22;32591;48.102;11.772;2022-08-14T12:58:47;30.70;36.80
46117;DHT22;32591;48.102;11.772;2022-08-14T13:01:20;30.70;35.90
46117;DHT22;32591;48.102;11.772;2022-08-14T13:03:49;30.70;35.70
46117;DHT22;32591;48.102;11.772;2022-08-14T13:06:19;30.60;36.10
46117;DHT22;32591;48.102;11.772;2022-08-14T13:08:48;30.70;36.90
46117;DHT22;32591;48.102;11.772;2022-08-14T13:11:18;30.90;35.90
46117;DHT22;32591;48.102;11.772;2022-08-14T13:13:46;31.10;35.80
46117;DHT22;32591;48.102;11.772;2022-08-14T13:16:13;31.30;35.80
46117;DHT22;32591;48.102;11.772;2022-08-14T13:18:42;31.30;34.00
46117;DHT22;32591;48.102;11.772;2022-08-14T13:21:12;30.70;33.80
46117;DHT22;32591;48.102;11.772;2022-08-14T13:23:41;30.70;35.30
46117;DHT22;32591;48.102;11.772;2022-08-14T13:26:09;30.90;35.10
46117;DHT22;32591;48.102;11.772;2022-08-14T13:28:39;31.00;36.50
46117;DHT22;32591;48.102;11.772;2022-08-14T13:31:08;31.20;36.40
46117;DHT22;32591;48.102;11.772;2022-08-14T13:33:45;31.10;35.20
46117;DHT22;32591;48.102;11.772;2022-08-14T13:36:12;31.10;36.00
46117;DHT22;32591;48.102;11.772;2022-08-14T13:38:41;31.10;35.10
46117;DHT22;32591;48.102;11.772;2022-08-14T13:41:10;31.20;34.50
46117;DHT22;32591;48.102;11.772;2022-08-14T13:43:37;31.40;34.70
46117;DHT22;32591;48.102;11.772;2022-08-14T13:46:05;31.30;33.90
46117;DHT22;32591;48.102;11.772;2022-08-14T13:48:32;31.30;34.80
46117;DHT22;32591;48.102;11.772;2022-08-14T13:51:02;31.10;34.30
46117;DHT22;32591;48.102;11.772;2022-08-14T13:53:31;31.10;34.30
46117;DHT22;32591;48.102;11.772;2022-08-14T13:56:04;31.30;36.80
46117;DHT22;32591;48.102;11.772;2022-08-14T13:58:33;31.70;36.20
46117;DHT22;32591;48.102;11.772;2022-08-14T14:01:02;31.90;35.50
46117;DHT22;32591;48.102;11.772;2022-08-14T14:03:33;32.10;36.10
46117;DHT22;32591;48.102;11.772;2022-08-14T14:06:02;32.30;36.00
46117;DHT22;32591;48.102;11.772;2022-08-14T14:08:33;32.30;35.60
46117;DHT22;32591;48.102;11.772;2022-08-14T14:11:03;32.40;34.90
46117;DHT22;32591;48.102;11.772;2022-08-14T14:13:30;32.30;34.90
46117;DHT22;32591;48.102;11.772;2022-08-14T14:15:57;32.40;36.00
46117;DHT22;32591;48.102;11.772;2022-08-14T14:18:27;32.50;34.60
46117;DHT22;32591;48.102;11.772;2022-08-14T14:20:56;32.30;35.00
46117;DHT22;32591;48.102;11.772;2022-08-14T14:23:24;32.50;34.90
46117;DHT22;32591;48.102;11.772;2022-08-14T14:25:52;32.60;35.60
46117;DHT22;32591;48.102;11.772;2022-08-14T14:28:24;32.60;36.00
46117;DHT22;32591;48.102;11.772;2022-08-14T14:30:56;32.70;35.60
46117;DHT22;32591;48.102;11.772;2022-08-14T14:33:24;33.00;35.20
46117;DHT22;32591;48.102;11.772;2022-08-14T14:35:52;33.00;34.30
46117;DHT22;32591;48.102;11.772;2022-08-14T14:38:19;32.90;35.20
46117;DHT22;32591;48.102;11.772;2022-08-14T14:40:48;32.90;34.40
46117;DHT22;32591;48.102;11.772;2022-08-14T14:43:27;32.80;33.80
46117;DHT22;32591;48.102;11.772;2022-08-14T14:45:55;33.00;34.30
46117;DHT22;32591;48.102;11.772;2022-08-14T14:48:22;33.10;33.90
46117;DHT22;32591;48.102;11.772;2022-08-14T14:50:50;33.10;31.90
46117;DHT22;32591;48.102;11.772;2022-08-14T14:53:17;33.10;33.40
46117;DHT22;32591;48.102;11.772;2022-08-14T14:55:46;33.20;33.30
46117;DHT22;32591;48.102;11.772;2022-08-14T14:58:13;33.30;33.40
46117;DHT22;32591;48.102;11.772;2022-08-14T15:00:44;33.50;33.20
46117;DHT22;32591;48.102;11.772;2022-08-14T15:03:12;33.80;32.40
46117;DHT22;32591;48.102;11.772;2022-08-14T15:05:39;33.80;33.10
46117;DHT22;32591;48.102;11.772;2022-08-14T15:08:06;33.80;32.30
46117;DHT22;32591;48.102;11.772;2022-08-14T15:10:33;33.40;31.70
46117;DHT22;32591;48.102;11.772;2022-08-14T15:13:00;33.30;33.00
46117;DHT22;32591;48.102;11.772;2022-08-14T15:15:27;33.50;32.60
46117;DHT22;32591;48.102;11.772;2022-08-14T15:17:55;33.60;31.20
46117;DHT22;32591;48.102;11.772;2022-08-14T15:20:23;33.30;31.80
46117;DHT22;32591;48.102;11.772;2022-08-14T15:22:50;33.40;32.40
46117;DHT22;32591;48.102;11.772;2022-08-14T15:25:17;33.50;31.70
46117;DHT22;32591;48.102;11.772;2022-08-14T15:27:44;33.70;33.00
46117;DHT22;32591;48.102;11.772;2022-08-14T15:30:16;33.80;32.30
46117;DHT22;32591;48.102;11.772;2022-08-14T15:32:43;33.90;33.50
46117;DHT22;32591;48.102;11.772;2022-08-14T15:35:11;34.00;32.10
46117;DHT22;32591;48.102;11.772;2022-08-14T15:37:39;34.20;32.00